Lake Orion, MI (48362)

9:19 PM EDT on August 29, 2016 (GMT -0400)
Hills of Oxford Condos (North M24 Oxford/Lake Orion) | | Change Station

Elev 1020 ft 42.80 °N, 83.25 °W | Updated 18 seconds ago

Partly Cloudy
Partly Cloudy
70.7 °F
Feels Like 77 °F
N
0.0
Wind Variable Wind from West
Gusts 0.0 mph

Today
High -- | Low -- °F
--% Chance of Precip.
Yesterday
High -- | Low -- °F
Precip. -- in
Pressure 30.21 in
Visibility 10.0 miles
Clouds Few 24000 ft
Heat Index 77 °F
Dew Point 41 °F
Humidity 34%
Rainfall 0.00 in
Snow Depth Not available.
6:55 AM 8:11 PM
Waning Crescent, 6% visible
METAR KPTK 300053Z 15004KT 10SM FEW240 25/17 A3022 RMK AO2 SLP228 T02500172
Pressure 30.21 in
Visibility 10.0 miles
Clouds Few 24000 ft
Heat Index 77 °F
Dew Point 41 °F
Humidity 34%
Rainfall 0.00 in
Snow Depth Not available.
6:55 AM 8:11 PM
Waning Crescent, 6% visible
METAR KPTK 300053Z 15004KT 10SM FEW240 25/17 A3022 RMK AO2 SLP228 T02500172

10-Day Weather Forecast

Almanac

Astronomy

Aug. 29, 2016 Rise Set
Actual Time
Civil Twilight
Nautical Twilight
Astronomical Twilight
Moon
Length of Visible Light
Length of Day
Tomorrow will be .
, % of the Moon is Illuminated

Today's Extremes

State Highs State Lows

Community

WunderPhotos

Upload Photos

1,935,709 photos uploaded!

WunderBlog® & News

Nearby

Air Quality

  Air Quality AQ Index Pollutant
Not available.

Snow Depth

Station Depth Elevation

Earthquake Activity

City Distance Mag. Time & Date
Minimum magnitude displayed is 2.5.

Coastal Water Temperatures

Place Temperature

Stations

Nearby Weather Stations

Station Location Temp. Windchill Dew Point Humidity Wind Precip. Elev Updated Type
                   

Watches & Warnings

There are currently no watches in effect.